createdAt,value
2023-04-23T00:00:01.948Z,7.95
2023-04-23T00:02:33.517Z,9.18
2023-04-23T00:05:06.545Z,7.15
2023-04-23T00:07:34.928Z,8.10
2023-04-23T00:10:08.392Z,8.48
2023-04-23T00:15:07.082Z,9.50
2023-04-23T00:17:34.653Z,8.13
2023-04-23T00:20:03.039Z,8.73
2023-04-23T00:22:31.100Z,8.43
2023-04-23T00:24:58.703Z,9.52
2023-04-23T00:27:26.220Z,9.48
2023-04-23T00:29:53.826Z,9.35
2023-04-23T00:32:22.818Z,9.73
2023-04-23T00:34:50.384Z,8.95
2023-04-23T00:37:18.896Z,9.02
2023-04-23T00:39:46.714Z,9.55
2023-04-23T00:42:14.397Z,9.70
2023-04-23T00:44:42.736Z,8.85
2023-04-23T00:47:12.335Z,9.32
2023-04-23T00:49:40.337Z,8.57
2023-04-23T00:52:07.947Z,9.15
2023-04-23T00:54:35.456Z,9.80
2023-04-23T00:57:03.801Z,8.85
2023-04-23T00:59:32.517Z,9.10
2023-04-23T01:02:37.373Z,9.43
2023-04-23T01:05:07.967Z,8.70
2023-04-23T01:07:36.099Z,9.55
2023-04-23T01:10:07.038Z,8.90
2023-04-23T01:12:35.221Z,8.63
2023-04-23T01:15:04.271Z,8.07
2023-04-23T01:17:32.420Z,8.63
2023-04-23T01:19:59.983Z,8.05
2023-04-23T01:22:27.624Z,8.25
2023-04-23T01:24:55.405Z,8.43
2023-04-23T01:27:25.111Z,7.57
2023-04-23T01:29:53.411Z,7.95
2023-04-23T01:32:21.863Z,7.63
2023-04-23T01:34:52.172Z,8.30
2023-04-23T01:37:20.357Z,8.35
2023-04-23T01:39:47.956Z,7.18
2023-04-23T01:42:16.093Z,8.48
2023-04-23T01:44:44.165Z,7.90
2023-04-23T01:47:11.886Z,7.32
2023-04-23T01:49:39.400Z,8.32
2023-04-23T01:52:06.950Z,7.75
2023-04-23T01:54:34.463Z,8.00
2023-04-23T01:57:03.097Z,8.00
2023-04-23T01:59:31.173Z,8.25
2023-04-23T02:01:58.731Z,8.15
2023-04-23T02:04:27.177Z,7.80
2023-04-23T02:06:56.044Z,8.05
2023-04-23T02:09:23.732Z,7.65
2023-04-23T02:11:51.819Z,8.23
2023-04-23T02:14:19.934Z,8.23
2023-04-23T02:16:48.501Z,8.23
2023-04-23T02:19:17.098Z,7.65
2023-04-23T02:21:45.463Z,7.65
2023-04-23T02:24:13.491Z,7.57
2023-04-23T02:26:41.544Z,7.50
2023-04-23T02:29:09.799Z,8.30
2023-04-23T02:31:37.562Z,7.50
2023-04-23T02:34:05.756Z,7.30
2023-04-23T02:36:33.665Z,7.95
2023-04-23T02:39:01.471Z,6.53
2023-04-23T02:41:32.899Z,7.32
2023-04-23T02:44:00.670Z,7.18
2023-04-23T02:46:29.401Z,7.00
2023-04-23T02:48:57.240Z,7.07
2023-04-23T02:51:26.197Z,6.70
2023-04-23T02:53:53.799Z,6.72
2023-04-23T02:56:21.305Z,6.82
2023-04-23T02:58:48.868Z,7.05
2023-04-23T03:01:16.678Z,6.25
2023-04-23T03:03:44.420Z,7.43
2023-04-23T03:06:12.205Z,6.43
2023-04-23T03:08:39.722Z,6.60
2023-04-23T03:11:07.299Z,6.55
2023-04-23T03:13:34.869Z,6.88
2023-04-23T03:16:02.544Z,6.43
2023-04-23T03:18:30.367Z,6.47
2023-04-23T03:20:58.107Z,6.97
2023-04-23T03:23:58.061Z,7.28
2023-04-23T03:26:25.660Z,6.65
2023-04-23T03:28:54.048Z,6.55
2023-04-23T03:31:21.724Z,6.57
2023-04-23T03:33:49.385Z,6.25
2023-04-23T03:36:17.026Z,6.70
2023-04-23T03:38:44.507Z,6.20
2023-04-23T03:41:12.371Z,6.43
2023-04-23T03:43:39.869Z,6.15
2023-04-23T03:46:07.626Z,5.70
2023-04-23T03:48:35.700Z,5.80
2023-04-23T03:51:03.206Z,5.93
2023-04-23T03:53:31.003Z,6.00
2023-04-23T03:55:58.558Z,5.70
2023-04-23T03:58:27.295Z,5.85
2023-04-23T04:00:54.810Z,5.32
2023-04-23T04:03:22.476Z,5.43
2023-04-23T04:05:50.170Z,5.63
2023-04-23T04:08:17.866Z,5.75
2023-04-23T04:10:45.457Z,5.15
2023-04-23T04:13:12.941Z,5.20
2023-04-23T04:15:40.425Z,5.65
2023-04-23T04:18:08.510Z,5.50
2023-04-23T04:20:36.004Z,5.10
2023-04-23T04:23:03.484Z,5.55
2023-04-23T04:25:31.177Z,5.32
2023-04-23T04:27:58.686Z,5.78
2023-04-23T04:30:27.013Z,5.28
2023-04-23T04:32:55.062Z,5.03
2023-04-23T04:35:23.271Z,5.65
2023-04-23T04:37:54.230Z,5.50
2023-04-23T04:40:22.141Z,5.40
2023-04-23T04:42:50.220Z,5.53
2023-04-23T04:45:18.134Z,5.78
2023-04-23T04:47:46.111Z,5.70
2023-04-23T04:50:13.977Z,5.07
2023-04-23T04:52:41.774Z,5.07
2023-04-23T04:55:10.276Z,4.95
2023-04-23T04:57:37.958Z,4.65
2023-04-23T05:00:22.698Z,4.93
2023-04-23T05:02:51.396Z,5.28
2023-04-23T05:05:20.815Z,5.22
2023-04-23T05:07:48.545Z,5.10
2023-04-23T05:10:16.690Z,4.75
2023-04-23T05:12:44.482Z,5.60
2023-04-23T05:15:13.522Z,5.05
2023-04-23T05:17:41.723Z,4.32
2023-04-23T05:20:11.508Z,4.90
2023-04-23T05:22:43.152Z,5.00
2023-04-23T05:25:12.549Z,4.15
2023-04-23T05:27:40.976Z,4.55
2023-04-23T05:30:10.313Z,4.22
2023-04-23T05:32:38.642Z,4.03
2023-04-23T05:35:07.188Z,4.03
2023-04-23T05:37:34.811Z,3.50
2023-04-23T05:40:03.287Z,3.97
2023-04-23T05:42:30.804Z,3.20
2023-04-23T05:44:58.282Z,3.25
2023-04-23T05:47:25.945Z,2.85
2023-04-23T05:49:53.517Z,3.03
2023-04-23T05:52:21.218Z,2.80
2023-04-23T05:54:49.352Z,3.08
2023-04-23T05:57:16.831Z,2.70
2023-04-23T05:59:44.638Z,2.67
2023-04-23T06:02:12.382Z,3.08
2023-04-23T06:04:40.149Z,2.30
2023-04-23T06:07:07.951Z,2.80
2023-04-23T06:09:35.993Z,2.30
2023-04-23T06:12:03.790Z,2.08
2023-04-23T06:14:31.288Z,2.33
2023-04-23T06:16:58.836Z,2.00
2023-04-23T06:19:27.949Z,2.00
2023-04-23T06:21:55.537Z,2.10
2023-04-23T06:24:23.076Z,2.30
2023-04-23T06:26:50.712Z,1.77
2023-04-23T06:29:18.249Z,1.77
2023-04-23T06:31:46.194Z,2.20
2023-04-23T06:34:13.812Z,2.10
2023-04-23T06:36:41.469Z,1.98
2023-04-23T06:39:09.028Z,1.95
2023-04-23T06:41:36.778Z,2.10
2023-04-23T06:44:04.252Z,1.90
2023-04-23T06:46:31.877Z,2.05
2023-04-23T06:48:59.452Z,1.70
2023-04-23T06:51:28.041Z,1.80
2023-04-23T06:53:55.574Z,1.88
2023-04-23T06:56:23.158Z,1.73
2023-04-23T06:58:50.789Z,1.85
2023-04-23T07:01:18.510Z,1.92
2023-04-23T07:03:49.305Z,1.90
2023-04-23T07:06:17.369Z,1.67
2023-04-23T07:08:45.412Z,1.60
2023-04-23T07:11:12.992Z,1.98
2023-04-23T07:13:40.755Z,1.42
2023-04-23T07:16:08.354Z,1.75
2023-04-23T07:18:35.957Z,1.30
2023-04-23T07:21:03.623Z,1.42
2023-04-23T07:23:31.191Z,1.45
2023-04-23T07:25:58.819Z,1.40
2023-04-23T07:28:26.517Z,1.33
2023-04-23T07:30:54.037Z,1.52
2023-04-23T07:33:21.782Z,1.20
2023-04-23T07:35:49.370Z,1.05
2023-04-23T07:38:16.973Z,1.20
2023-04-23T07:40:44.490Z,1.50
2023-04-23T07:43:12.595Z,0.98
2023-04-23T07:45:40.501Z,1.30
2023-04-23T07:48:08.060Z,1.15
2023-04-23T07:50:35.868Z,1.30
2023-04-23T07:53:03.912Z,1.35
2023-04-23T07:55:31.460Z,1.27
2023-04-23T07:57:59.004Z,1.20
2023-04-23T08:00:26.524Z,1.00
2023-04-23T08:02:54.266Z,1.05
2023-04-23T08:05:22.103Z,1.02
2023-04-23T08:07:49.767Z,1.40
2023-04-23T08:10:17.472Z,1.00
2023-04-23T08:12:45.213Z,1.10
2023-04-23T08:15:12.908Z,1.00
2023-04-23T08:17:40.706Z,1.20
2023-04-23T08:20:09.318Z,0.82
2023-04-23T08:22:37.030Z,1.10
2023-04-23T08:25:04.991Z,1.15
2023-04-23T08:27:32.608Z,1.25
2023-04-23T08:30:00.172Z,1.20
2023-04-23T08:32:29.457Z,1.00
2023-04-23T08:34:57.197Z,1.10
2023-04-23T08:37:30.820Z,1.02
2023-04-23T08:39:59.305Z,0.98
2023-04-23T08:42:37.654Z,1.10
2023-04-23T08:45:06.041Z,1.42
2023-04-23T08:47:35.615Z,1.10
2023-04-23T08:50:05.526Z,1.30
2023-04-23T08:52:36.008Z,1.05
2023-04-23T08:55:07.782Z,1.10
2023-04-23T08:57:35.836Z,1.20
2023-04-23T09:00:08.195Z,1.00
2023-04-23T09:02:57.355Z,0.90
2023-04-23T09:05:26.568Z,1.10
2023-04-23T09:07:54.947Z,1.38
2023-04-23T09:10:22.948Z,1.05
2023-04-23T09:12:50.505Z,0.88
2023-04-23T09:15:18.148Z,0.90
2023-04-23T09:17:47.243Z,1.15
2023-04-23T09:20:15.802Z,0.95
2023-04-23T09:22:45.995Z,1.02
2023-04-23T09:25:19.257Z,0.88
2023-04-23T09:27:48.306Z,1.07
2023-04-23T09:30:16.958Z,0.82
2023-04-23T09:32:49.677Z,0.98
2023-04-23T09:35:20.139Z,1.27
2023-04-23T09:37:52.658Z,1.00
2023-04-23T09:40:23.462Z,0.75
2023-04-23T09:42:56.073Z,1.00
2023-04-23T09:45:27.175Z,0.70
2023-04-23T09:47:56.577Z,1.00
2023-04-23T09:50:42.329Z,0.73
2023-04-23T09:53:10.872Z,0.80
2023-04-23T09:55:41.010Z,0.95
2023-04-23T09:58:13.561Z,0.82
2023-04-23T10:00:41.570Z,1.00
2023-04-23T10:03:10.348Z,0.88
2023-04-23T10:05:59.647Z,0.63
2023-04-23T10:08:29.182Z,0.82
2023-04-23T10:11:09.626Z,0.80
2023-04-23T10:13:42.398Z,0.90
2023-04-23T10:16:21.781Z,0.70
2023-04-23T10:18:53.352Z,0.60
2023-04-23T10:21:24.904Z,0.70
2023-04-23T10:23:52.577Z,0.60
2023-04-23T10:26:23.865Z,0.80
2023-04-23T10:28:55.055Z,0.73
2023-04-23T10:31:23.744Z,0.73
2023-04-23T10:33:58.305Z,0.80
2023-04-23T10:36:28.134Z,0.75
2023-04-23T10:39:00.327Z,0.60
2023-04-23T10:41:35.694Z,0.88
2023-04-23T10:44:05.457Z,0.70
2023-04-23T10:46:37.018Z,0.52
2023-04-23T10:49:17.283Z,0.25
2023-04-23T10:54:21.543Z,0.60
2023-04-23T10:56:59.884Z,0.65
2023-04-23T10:59:31.414Z,0.57
2023-04-23T11:02:07.199Z,0.70
2023-04-23T11:04:36.339Z,0.60
2023-04-23T11:07:08.743Z,0.60
2023-04-23T11:09:48.478Z,0.68
2023-04-23T11:12:24.851Z,0.50
2023-04-23T11:14:54.967Z,0.63
2023-04-23T11:17:44.060Z,0.68
2023-04-23T11:20:16.466Z,0.70
2023-04-23T11:22:45.136Z,0.55
2023-04-23T11:25:13.337Z,0.43
2023-04-23T11:27:43.584Z,0.65
2023-04-23T11:30:16.501Z,0.50
2023-04-23T11:32:53.176Z,0.40
2023-04-23T11:35:29.600Z,0.50
2023-04-23T11:37:57.497Z,0.82
2023-04-23T11:40:25.939Z,0.50
2023-04-23T11:42:55.347Z,0.60
2023-04-23T11:45:27.373Z,0.55
2023-04-23T11:47:57.385Z,0.77
2023-04-23T11:50:30.708Z,0.60
2023-04-23T11:52:58.732Z,0.47
2023-04-23T11:55:26.694Z,0.57
2023-04-23T11:57:54.212Z,0.45
2023-04-23T12:00:24.417Z,0.65
2023-04-23T12:03:02.540Z,0.57
2023-04-23T12:05:43.693Z,0.50
2023-04-23T12:08:19.532Z,0.60
2023-04-23T12:11:00.595Z,0.40
2023-04-23T12:13:33.928Z,0.70
2023-04-23T12:18:39.657Z,0.30
2023-04-23T12:21:11.455Z,0.40
2023-04-23T12:23:41.640Z,0.30
2023-04-23T12:26:13.884Z,0.50
2023-04-23T12:28:50.037Z,0.60
2023-04-23T12:31:25.070Z,0.65
2023-04-23T12:34:09.012Z,0.70
2023-04-23T12:36:37.988Z,0.60
2023-04-23T12:39:25.773Z,0.43
2023-04-23T12:42:03.208Z,0.50
2023-04-23T12:44:35.592Z,0.50
2023-04-23T12:47:07.476Z,0.57
2023-04-23T12:49:37.452Z,0.65
2023-04-23T12:52:06.405Z,0.60
2023-04-23T12:54:37.827Z,0.90
2023-04-23T12:57:12.207Z,0.43
2023-04-23T12:59:39.971Z,0.60
2023-04-23T13:02:07.845Z,0.55
2023-04-23T13:04:36.675Z,0.57
2023-04-23T13:07:05.010Z,0.50
2023-04-23T13:09:32.612Z,0.50
2023-04-23T13:12:00.804Z,0.75
2023-04-23T13:14:28.825Z,0.60
2023-04-23T13:16:58.124Z,0.63
2023-04-23T13:19:25.755Z,0.82
2023-04-23T13:21:53.951Z,0.68
2023-04-23T13:24:21.549Z,0.52
2023-04-23T13:26:49.173Z,0.52
2023-04-23T13:29:18.739Z,0.65
2023-04-23T13:31:46.890Z,0.82
2023-04-23T13:34:15.580Z,0.57
2023-04-23T13:36:43.374Z,0.93
2023-04-23T13:39:13.431Z,0.40
2023-04-23T13:41:41.531Z,0.70
2023-04-23T13:44:09.217Z,0.63
2023-04-23T13:46:37.288Z,0.63
2023-04-23T13:49:04.839Z,0.70
2023-04-23T13:51:35.793Z,0.50
2023-04-23T13:54:07.050Z,0.75
2023-04-23T13:56:34.597Z,0.63
2023-04-23T14:04:04.477Z,0.75
2023-04-23T14:06:32.258Z,0.70
2023-04-23T14:08:59.846Z,0.75
2023-04-23T14:11:27.662Z,0.80
2023-04-23T14:13:56.545Z,0.95
2023-04-23T14:16:24.088Z,0.60
2023-04-23T14:18:51.933Z,0.80
2023-04-23T14:21:19.714Z,1.00
2023-04-23T14:23:57.167Z,0.63
2023-04-23T14:26:48.146Z,0.90
2023-04-23T14:29:25.722Z,1.05
2023-04-23T14:31:53.600Z,0.85
2023-04-23T14:34:21.628Z,0.90
2023-04-23T14:36:49.782Z,0.98
2023-04-23T14:39:17.539Z,0.98
2023-04-23T14:41:45.551Z,1.20
2023-04-23T14:44:13.140Z,1.50
2023-04-23T14:46:40.826Z,1.17
2023-04-23T14:49:09.033Z,1.10
2023-04-23T14:51:37.624Z,1.05
2023-04-23T14:54:07.921Z,1.05
2023-04-23T14:56:37.034Z,0.90
2023-04-23T14:59:04.956Z,0.90
2023-04-23T15:01:33.239Z,0.90
2023-04-23T15:04:01.303Z,0.90
2023-04-23T15:06:29.462Z,0.82
2023-04-23T15:08:57.127Z,0.80
2023-04-23T15:11:24.722Z,1.13
2023-04-23T15:14:18.571Z,1.17
2023-04-23T15:16:48.945Z,1.20
2023-04-23T15:19:18.582Z,0.85
2023-04-23T15:21:47.418Z,0.93
2023-04-23T15:24:15.779Z,0.90
2023-04-23T15:26:43.972Z,0.70
2023-04-23T15:29:13.861Z,1.13
2023-04-23T15:31:42.324Z,0.80
2023-04-23T15:34:11.671Z,1.00
2023-04-23T15:36:39.487Z,1.10
2023-04-23T15:39:08.746Z,0.98
2023-04-23T15:41:39.403Z,0.82
2023-04-23T15:44:12.093Z,0.93
2023-04-23T15:46:40.194Z,1.00
2023-04-23T15:49:08.077Z,0.90
2023-04-23T15:51:36.241Z,1.10
2023-04-23T15:54:06.056Z,1.45
2023-04-23T15:56:33.841Z,1.80
2023-04-23T15:59:01.457Z,1.73
2023-04-23T16:01:29.680Z,1.48
2023-04-23T16:06:27.820Z,1.02
2023-04-23T16:08:55.280Z,1.17
2023-04-23T16:11:27.716Z,0.80
2023-04-23T16:13:57.153Z,1.00
2023-04-23T16:16:24.722Z,0.80
2023-04-23T16:18:52.421Z,0.90
2023-04-23T16:21:19.872Z,0.90
2023-04-23T16:23:47.353Z,0.82
2023-04-23T16:26:15.172Z,0.80
2023-04-23T16:28:42.695Z,0.75
2023-04-23T16:31:10.566Z,0.50
2023-04-23T16:33:38.176Z,0.60
2023-04-23T16:36:06.143Z,0.40
2023-04-23T16:38:33.772Z,0.50
2023-04-23T16:41:02.285Z,0.68
2023-04-23T16:43:29.827Z,0.60
2023-04-23T16:45:58.277Z,0.68
2023-04-23T16:48:25.943Z,0.40
2023-04-23T16:50:53.469Z,0.52
2023-04-23T16:53:20.949Z,0.45
2023-04-23T16:55:48.804Z,0.30
2023-04-23T16:58:17.907Z,0.40
2023-04-23T17:00:47.057Z,0.40
2023-04-23T17:03:16.238Z,0.57
2023-04-23T17:05:44.328Z,0.43
2023-04-23T17:08:11.986Z,0.40
2023-04-23T17:10:39.709Z,0.20
2023-04-23T17:13:07.186Z,0.40
2023-04-23T17:15:34.699Z,0.10
2023-04-23T17:18:02.477Z,0.30
2023-04-23T17:20:35.181Z,0.22
2023-04-23T17:23:03.739Z,0.20
2023-04-23T17:25:31.243Z,0.30
2023-04-23T17:27:59.063Z,0.10
2023-04-23T17:30:27.034Z,0.20
2023-04-23T17:32:54.542Z,0.10
2023-04-23T17:35:22.065Z,0.10
2023-04-23T17:37:49.784Z,0.10
2023-04-23T17:40:17.843Z,0.10
2023-04-23T17:42:45.485Z,0.10
2023-04-23T17:45:13.124Z,0.00
2023-04-23T17:47:41.157Z,0.03
2023-04-23T17:50:11.713Z,0.10
2023-04-23T17:52:42.602Z,0.10
2023-04-23T17:55:10.282Z,0.10
2023-04-23T17:57:37.790Z,0.20
2023-04-23T18:00:13.729Z,0.10
2023-04-23T18:02:41.746Z,0.10
2023-04-23T18:05:10.602Z,0.15
2023-04-23T18:07:39.348Z,0.10
2023-04-23T18:10:08.161Z,0.10
2023-04-23T18:12:36.320Z,0.10
2023-04-23T18:15:04.378Z,0.20
2023-04-23T18:17:31.970Z,0.20
2023-04-23T18:19:59.490Z,0.25
2023-04-23T18:22:27.075Z,0.10
2023-04-23T18:24:55.396Z,0.20
2023-04-23T18:27:22.872Z,0.20
2023-04-23T18:29:50.430Z,0.30
2023-04-23T18:32:27.557Z,0.30
2023-04-23T18:35:02.552Z,0.50
2023-04-23T18:37:39.036Z,0.70
2023-04-23T18:40:07.380Z,0.70
2023-04-23T18:42:35.284Z,0.70
2023-04-23T18:45:04.390Z,0.50
2023-04-23T18:47:38.483Z,0.47
2023-04-23T18:50:28.346Z,0.63
2023-04-23T18:52:55.981Z,0.77
2023-04-23T18:55:23.503Z,0.60
2023-04-23T18:57:51.786Z,0.60
2023-04-23T19:00:19.566Z,0.80
2023-04-23T19:02:47.433Z,0.75
2023-04-23T19:05:15.113Z,0.70
2023-04-23T19:07:43.173Z,0.82
2023-04-23T19:10:11.685Z,0.80
2023-04-23T19:12:39.458Z,0.70
2023-04-23T19:15:07.487Z,0.93
2023-04-23T19:17:35.746Z,0.80
2023-04-23T19:20:04.154Z,0.80
2023-04-23T19:22:31.932Z,0.60
2023-04-23T19:24:59.422Z,0.80
2023-04-23T19:27:26.980Z,0.50
2023-04-23T19:29:55.935Z,0.60
2023-04-23T19:32:23.501Z,0.43
2023-04-23T19:34:51.889Z,0.52
2023-04-23T19:37:19.433Z,0.57
2023-04-23T19:39:46.916Z,0.55
2023-04-23T19:42:14.734Z,0.65
2023-04-23T19:44:42.601Z,0.90
2023-04-23T19:47:10.362Z,0.77
2023-04-23T19:49:37.872Z,0.90
2023-04-23T19:52:05.610Z,0.85
2023-04-23T19:54:33.144Z,0.80
2023-04-23T19:57:00.792Z,0.95
2023-04-23T19:59:28.360Z,0.90
2023-04-23T20:01:56.206Z,1.20
2023-04-23T20:04:23.827Z,0.98
2023-04-23T20:06:53.456Z,0.85
2023-04-23T20:09:22.021Z,0.85
2023-04-23T20:11:49.658Z,0.95
2023-04-23T20:14:17.912Z,0.77
2023-04-23T20:16:45.922Z,1.00
2023-04-23T20:19:14.790Z,1.10
2023-04-23T20:21:46.231Z,1.23
2023-04-23T20:24:17.293Z,1.38
2023-04-23T20:26:44.857Z,1.30
2023-04-23T20:29:12.486Z,1.30
2023-04-23T20:31:40.378Z,1.60
2023-04-23T20:34:08.171Z,1.67
2023-04-23T20:36:35.863Z,1.77
2023-04-23T20:39:05.181Z,1.77
2023-04-23T20:41:36.897Z,2.10
2023-04-23T20:44:09.428Z,1.98
2023-04-23T20:46:37.071Z,2.05
2023-04-23T20:49:05.042Z,2.30
2023-04-23T20:51:35.609Z,2.15
2023-04-23T20:54:03.160Z,2.08
2023-04-23T20:56:31.631Z,2.03
2023-04-23T20:58:59.846Z,2.10
2023-04-23T21:01:27.760Z,1.95
2023-04-23T21:03:55.462Z,2.00
2023-04-23T21:06:23.226Z,1.83
2023-04-23T21:08:50.745Z,2.13
2023-04-23T21:11:19.728Z,1.80
2023-04-23T21:13:47.472Z,2.13
2023-04-23T21:16:15.436Z,1.90
2023-04-23T21:18:43.927Z,2.88
2023-04-23T21:21:11.481Z,2.40
2023-04-23T21:23:39.238Z,2.65
2023-04-23T21:26:07.769Z,3.20
2023-04-23T21:28:36.397Z,2.63
2023-04-23T21:31:17.868Z,2.60
2023-04-23T21:33:45.664Z,3.10
2023-04-23T21:36:13.556Z,3.42
2023-04-23T21:38:41.020Z,2.75
2023-04-23T21:41:08.745Z,3.10
2023-04-23T21:43:36.635Z,3.22
2023-04-23T21:46:04.189Z,3.10
2023-04-23T21:48:32.151Z,3.17
2023-04-23T21:50:59.741Z,3.08
2023-04-23T21:53:27.735Z,3.08
2023-04-23T21:55:55.430Z,3.05
2023-04-23T21:58:22.996Z,2.78
2023-04-23T22:00:50.696Z,3.03
2023-04-23T22:03:22.748Z,3.03
2023-04-23T22:06:05.316Z,3.03
2023-04-23T22:08:34.866Z,2.75
2023-04-23T22:11:02.376Z,3.10
2023-04-23T22:13:29.911Z,2.78
2023-04-23T22:15:57.534Z,3.40
2023-04-23T22:18:25.714Z,3.20
2023-04-23T22:20:53.576Z,3.55
2023-04-23T22:23:21.758Z,2.58
2023-04-23T22:25:49.437Z,3.35
2023-04-23T22:28:17.378Z,3.85
2023-04-23T22:30:45.068Z,3.00
2023-04-23T22:33:12.629Z,3.83
2023-04-23T22:35:40.338Z,3.83
2023-04-23T22:38:08.477Z,3.55
2023-04-23T22:40:36.130Z,4.20
2023-04-23T22:43:03.826Z,4.22
2023-04-23T22:45:31.345Z,3.92
2023-04-23T22:47:58.865Z,4.13
2023-04-23T22:50:27.237Z,4.05
2023-04-23T22:52:54.698Z,4.03
2023-04-23T22:55:22.236Z,4.47
2023-04-23T22:57:49.793Z,4.93
2023-04-23T23:00:17.379Z,4.82
2023-04-23T23:02:45.040Z,4.53
2023-04-23T23:05:12.759Z,4.97
2023-04-23T23:07:40.352Z,4.57
2023-04-23T23:10:11.221Z,5.53
2023-04-23T23:12:39.519Z,4.95
2023-04-23T23:15:08.139Z,4.95
2023-04-23T23:17:35.740Z,5.38
2023-04-23T23:20:06.937Z,5.30
2023-04-23T23:22:35.143Z,5.10
2023-04-23T23:25:02.857Z,4.97
2023-04-23T23:27:30.536Z,4.78
2023-04-23T23:29:58.153Z,4.53
2023-04-23T23:32:25.742Z,4.65
2023-04-23T23:34:53.398Z,5.63
2023-04-23T23:37:20.984Z,5.18
2023-04-23T23:39:48.536Z,5.45
2023-04-23T23:42:16.181Z,4.45
2023-04-23T23:44:43.812Z,5.57
2023-04-23T23:47:11.502Z,5.68
2023-04-23T23:49:39.222Z,5.68
2023-04-23T23:52:06.950Z,6.00
2023-04-23T23:54:34.609Z,5.63
2023-04-23T23:57:02.719Z,5.70
2023-04-23T23:59:30.230Z,5.55
